Time;durP1;ratioP1;P1;durP2;ratioP2;P2;SDS_P1;SDS_P2;PMS_P1;PMS_P2;Temp;Humidity;BMP_temperature;BMP_pressure;BME280_temperature;BME280_humidity;BME280_pressure;Samples;Min_cycle;Max_cycle;Signal;HPM_P1;HPM_P2
2023/10/23 00:01:07;;;;;;;1.50;0.90;;;15.70;90.80;;;;;;4957335;28;20074;-80
2023/10/23 00:03:32;;;;;;;1.48;0.82;;;15.70;91.00;;;;;;4956994;28;20062;-80
2023/10/23 00:05:58;;;;;;;0.85;0.73;;;15.70;90.80;;;;;;4974284;28;20035;-80
2023/10/23 00:08:23;;;;;;;1.33;0.90;;;15.70;90.80;;;;;;4957115;28;20034;-79
2023/10/23 00:10:49;;;;;;;1.25;0.90;;;15.70;90.80;;;;;;4957074;28;20121;-80
2023/10/23 00:13:14;;;;;;;0.90;0.75;;;15.70;90.80;;;;;;4957052;28;20019;-80
2023/10/23 00:15:40;;;;;;;0.70;0.70;;;15.70;90.80;;;;;;4974519;28;20477;-81
2023/10/23 00:18:05;;;;;;;1.40;0.80;;;15.70;90.80;;;;;;4974234;28;20086;-80
2023/10/23 00:20:31;;;;;;;1.27;0.85;;;15.70;90.90;;;;;;4956993;28;20101;-80
2023/10/23 00:22:57;;;;;;;0.82;0.70;;;15.70;90.80;;;;;;4973695;28;20102;-80
2023/10/23 00:25:22;;;;;;;0.70;0.70;;;15.70;91.00;;;;;;4956939;28;20158;-81
2023/10/23 00:27:48;;;;;;;1.00;0.77;;;15.70;90.70;;;;;;4974258;28;20026;-81
2023/10/23 00:30:13;;;;;;;1.02;0.70;;;15.80;90.70;;;;;;4974134;28;20024;-78
2023/10/23 00:32:39;;;;;;;0.90;0.73;;;15.80;90.60;;;;;;4956458;28;20010;-80
2023/10/23 00:35:05;;;;;;;1.52;0.90;;;15.80;90.60;;;;;;4956588;28;20025;-80
2023/10/23 00:37:31;;;;;;;0.93;0.85;;;15.80;90.60;;;;;;4973953;28;20031;-80
2023/10/23 00:39:56;;;;;;;1.17;0.75;;;15.80;90.60;;;;;;4956634;28;20515;-81
2023/10/23 00:42:22;;;;;;;0.80;0.73;;;15.80;90.60;;;;;;4956449;28;20031;-81
2023/10/23 00:44:48;;;;;;;1.23;0.80;;;15.80;90.60;;;;;;4956662;28;20096;-80
2023/10/23 00:47:16;;;;;;;1.23;0.80;;;15.80;90.60;;;;;;4973771;28;20129;-80
2023/10/23 00:49:42;;;;;;;1.25;0.90;;;15.80;90.70;;;;;;4956649;28;20457;-81
2023/10/23 00:52:09;;;;;;;1.00;0.80;;;15.80;90.70;;;;;;4973918;28;20062;-80
2023/10/23 00:54:34;;;;;;;1.45;1.00;;;15.70;90.70;;;;;;4988566;28;20096;-81
2023/10/23 00:57:01;;;;;;;1.10;0.80;;;15.70;90.80;;;;;;4956578;28;20022;-81
2023/10/23 00:59:27;;;;;;;1.50;0.88;;;15.70;90.80;;;;;;4955631;28;20038;-80
2023/10/23 01:01:53;;;;;;;1.17;0.80;;;15.70;90.80;;;;;;4956425;28;20030;-80
2023/10/23 01:04:19;;;;;;;1.73;0.85;;;15.70;90.80;;;;;;4956155;28;20023;-80
2023/10/23 01:06:45;;;;;;;0.80;0.70;;;15.70;90.80;;;;;;4988795;28;20073;-80
2023/10/23 01:09:11;;;;;;;1.13;0.80;;;15.70;90.80;;;;;;4956376;28;20109;-80
2023/10/23 01:11:36;;;;;;;1.00;0.80;;;15.70;90.80;;;;;;4973633;28;20027;-81
2023/10/23 01:14:02;;;;;;;1.15;0.90;;;15.70;90.80;;;;;;4955939;28;20027;-81
2023/10/23 01:16:27;;;;;;;0.98;0.80;;;15.70;90.80;;;;;;4956421;28;20504;-80
2023/10/23 01:18:53;;;;;;;1.50;0.90;;;15.70;90.90;;;;;;4956450;28;20517;-80
2023/10/23 01:21:18;;;;;;;1.05;0.88;;;15.70;90.90;;;;;;4955961;28;20030;-80
2023/10/23 01:23:47;;;;;;;0.70;0.70;;;15.70;90.90;;;;;;4973229;28;20026;-81
2023/10/23 01:26:13;;;;;;;1.20;0.90;;;15.70;90.90;;;;;;4956167;28;20031;-80
2023/10/23 01:28:38;;;;;;;1.00;0.85;;;15.70;90.90;;;;;;4973400;28;20456;-80
2023/10/23 01:31:04;;;;;;;1.20;0.90;;;15.70;90.90;;;;;;4988351;28;20035;-81
2023/10/23 01:33:29;;;;;;;1.63;0.80;;;15.70;90.90;;;;;;4955835;28;20027;-81
2023/10/23 01:35:55;;;;;;;1.10;0.70;;;15.70;90.90;;;;;;4973497;28;20102;-81
2023/10/23 01:38:20;;;;;;;0.80;0.80;;;15.70;90.80;;;;;;4973409;28;20105;-81
2023/10/23 01:40:46;;;;;;;1.42;0.80;;;15.70;90.80;;;;;;4956086;28;20027;-81
2023/10/23 01:43:11;;;;;;;0.60;0.60;;;15.70;90.70;;;;;;4955898;28;20118;-81
2023/10/23 01:45:37;;;;;;;0.77;0.77;;;15.80;90.70;;;;;;4956021;28;20035;-80
2023/10/23 01:48:03;;;;;;;1.10;0.70;;;15.80;90.60;;;;;;4956116;28;20059;-81
2023/10/23 01:50:28;;;;;;;1.35;0.85;;;15.80;90.60;;;;;;4955963;28;20113;-80
2023/10/23 01:52:54;;;;;;;0.68;0.68;;;15.80;90.60;;;;;;4955715;28;20027;-81
2023/10/23 01:55:19;;;;;;;1.10;0.80;;;15.80;90.60;;;;;;4988017;28;20038;-81
2023/10/23 01:57:45;;;;;;;1.40;0.88;;;15.80;90.60;;;;;;4988270;28;20378;-80
2023/10/23 02:00:11;;;;;;;1.17;0.90;;;15.80;90.70;;;;;;4956011;28;20022;-81
2023/10/23 02:02:37;;;;;;;1.50;0.90;;;15.80;90.70;;;;;;4955522;28;20030;-81
2023/10/23 02:05:03;;;;;;;1.00;0.80;;;15.70;90.70;;;;;;4988083;28;20027;-80
2023/10/23 02:07:28;;;;;;;1.15;0.85;;;15.70;90.80;;;;;;4973292;28;20485;-81
2023/10/23 02:09:56;;;;;;;1.55;0.95;;;15.70;90.80;;;;;;4955512;28;20468;-81
2023/10/23 02:12:22;;;;;;;1.35;1.00;;;15.70;90.80;;;;;;4958916;28;20050;-81
2023/10/23 02:14:50;;;;;;;1.65;1.00;;;15.70;90.80;;;;;;4959046;28;20485;-81
2023/10/23 02:17:17;;;;;;;1.65;0.90;;;15.70;90.80;;;;;;4959177;28;20077;-81
2023/10/23 02:19:43;;;;;;;1.52;0.93;;;15.70;90.80;;;;;;4959110;28;20027;-81
2023/10/23 02:22:08;;;;;;;1.42;0.90;;;15.70;90.90;;;;;;4958579;28;20117;-81
2023/10/23 02:24:34;;;;;;;0.98;0.88;;;15.70;90.90;;;;;;4958940;28;20031;-80
2023/10/23 02:26:59;;;;;;;1.30;0.90;;;15.70;90.90;;;;;;4956427;28;20039;-80
2023/10/23 02:29:25;;;;;;;1.05;0.90;;;15.70;90.90;;;;;;4954733;28;20114;-81
2023/10/23 02:31:50;;;;;;;1.65;1.00;;;15.70;90.90;;;;;;4976377;28;20026;-81
2023/10/23 02:34:16;;;;;;;1.38;1.00;;;15.70;90.90;;;;;;4958778;28;20408;-80
2023/10/23 02:36:42;;;;;;;1.05;0.90;;;15.70;90.90;;;;;;4958770;28;20469;-79
2023/10/23 02:39:07;;;;;;;1.25;0.93;;;15.70;90.90;;;;;;4976158;28;20505;-80
2023/10/23 02:41:33;;;;;;;1.63;1.02;;;15.70;90.90;;;;;;4958683;28;20070;-81
2023/10/23 02:43:58;;;;;;;1.05;0.80;;;15.70;90.90;;;;;;4975852;28;20027;-80
2023/10/23 02:46:24;;;;;;;1.13;0.80;;;15.70;90.90;;;;;;4958577;28;20484;-81
2023/10/23 02:48:50;;;;;;;1.30;0.98;;;15.70;90.90;;;;;;4958564;28;20031;-81
2023/10/23 02:51:16;;;;;;;1.20;0.77;;;15.70;91.00;;;;;;4975908;28;20023;-80
2023/10/23 02:53:41;;;;;;;1.10;0.80;;;15.70;90.90;;;;;;4958220;28;20481;-80
2023/10/23 02:56:13;;;;;;;0.63;0.60;;;15.70;90.80;;;;;;4975613;28;20015;-81
2023/10/23 02:58:39;;;;;;;0.70;0.70;;;15.70;90.80;;;;;;4975803;28;20019;-81
2023/10/23 03:01:20;;;;;;;0.93;0.80;;;15.80;90.70;;;;;;4958423;28;20472;-80
2023/10/23 03:03:46;;;;;;;1.23;0.85;;;15.80;90.70;;;;;;4975445;28;20477;-80
2023/10/23 03:06:11;;;;;;;1.45;0.70;;;15.80;90.90;;;;;;4958420;28;20130;-81
2023/10/23 03:08:37;;;;;;;1.33;0.90;;;15.80;90.70;;;;;;4958239;28;20022;-80
2023/10/23 03:11:02;;;;;;;1.27;0.80;;;15.80;90.70;;;;;;4958110;28;20030;-80
2023/10/23 03:13:28;;;;;;;1.38;0.90;;;15.80;90.60;;;;;;4975190;28;20031;-81
2023/10/23 03:15:54;;;;;;;2.53;1.00;;;15.80;90.70;;;;;;4958425;28;20031;-81
2023/10/23 03:18:19;;;;;;;1.50;0.95;;;15.80;90.80;;;;;;4958187;28;20091;-81
2023/10/23 03:20:45;;;;;;;1.08;0.90;;;15.70;90.80;;;;;;4957496;28;20393;-81
2023/10/23 03:29:08;;;;;;;1.13;0.85;;;15.70;90.90;;;;;;4983771;28;20131;-84
2023/10/23 03:31:34;;;;;;;1.23;1.00;;;15.70;90.90;;;;;;4972276;28;20070;-81
2023/10/23 03:36:35;;;;;;;1.17;0.90;;;15.70;91.10;;;;;;5060874;23;20109;-77
2023/10/23 03:39:01;;;;;;;1.40;1.00;;;15.70;90.90;;;;;;4965234;28;20042;-76
2023/10/23 03:41:27;;;;;;;1.25;0.90;;;15.60;90.90;;;;;;4968371;28;20086;-76
2023/10/23 03:43:52;;;;;;;1.80;1.10;;;15.70;90.90;;;;;;4970789;28;20030;-77
2023/10/23 03:46:18;;;;;;;1.20;1.00;;;15.70;91.00;;;;;;4963168;28;20027;-76
2023/10/23 03:48:43;;;;;;;1.58;1.08;;;15.70;91.00;;;;;;4963792;28;20130;-76
2023/10/23 03:51:09;;;;;;;1.63;1.00;;;15.70;91.00;;;;;;4965950;28;20031;-78
2023/10/23 03:53:34;;;;;;;1.08;0.88;;;15.70;91.00;;;;;;4949259;28;20026;-78
2023/10/23 03:56:00;;;;;;;1.23;1.10;;;15.70;91.00;;;;;;4968765;28;20034;-76
2023/10/23 03:58:25;;;;;;;1.42;0.98;;;15.60;90.90;;;;;;4951623;28;20145;-77
2023/10/23 04:00:52;;;;;;;2.10;1.20;;;15.70;91.00;;;;;;4951271;28;20050;-77
2023/10/23 04:03:18;;;;;;;2.28;1.20;;;15.70;91.00;;;;;;4951578;28;20054;-78
2023/10/23 04:05:43;;;;;;;1.10;0.80;;;15.70;91.00;;;;;;4951610;28;20058;-77
2023/10/23 04:08:09;;;;;;;1.50;0.90;;;15.70;90.90;;;;;;4959303;28;20059;-78
2023/10/23 04:10:35;;;;;;;1.10;0.90;;;15.70;91.10;;;;;;4954368;29;20023;-81
2023/10/23 04:13:00;;;;;;;2.00;1.20;;;15.70;90.80;;;;;;4955556;29;20027;-80
2023/10/23 04:15:26;;;;;;;1.52;1.00;;;15.70;90.80;;;;;;4936459;29;20031;-79
2023/10/23 04:17:52;;;;;;;1.60;1.00;;;15.80;90.80;;;;;;4949906;29;20031;-76
2023/10/23 04:20:17;;;;;;;1.40;1.00;;;15.80;90.70;;;;;;4932824;29;20034;-79
2023/10/23 04:22:43;;;;;;;1.70;0.93;;;15.80;90.70;;;;;;4949196;29;20591;-78
2023/10/23 04:25:09;;;;;;;1.00;0.90;;;15.80;90.70;;;;;;4948388;29;20659;-79
2023/10/23 04:27:35;;;;;;;1.60;1.10;;;15.80;90.70;;;;;;4949062;29;20062;-79
2023/10/23 04:30:01;;;;;;;1.58;1.00;;;15.70;90.70;;;;;;4932968;29;20039;-79
2023/10/23 04:32:27;;;;;;;1.80;1.10;;;15.70;90.70;;;;;;4932402;29;20126;-79
2023/10/23 04:34:53;;;;;;;1.60;0.98;;;15.70;90.80;;;;;;4931943;29;20027;-77
2023/10/23 04:37:18;;;;;;;1.80;1.00;;;15.70;90.80;;;;;;4933075;29;20055;-79
2023/10/23 04:39:44;;;;;;;1.58;1.10;;;15.70;90.90;;;;;;4932883;29;20073;-79
2023/10/23 04:42:10;;;;;;;1.35;1.05;;;15.70;90.90;;;;;;4933408;29;20039;-79
2023/10/23 04:44:35;;;;;;;1.42;1.05;;;15.70;90.90;;;;;;4932634;29;20023;-79
2023/10/23 04:47:01;;;;;;;1.80;1.02;;;15.70;90.90;;;;;;4933098;29;20575;-79
2023/10/23 04:49:27;;;;;;;1.50;1.10;;;15.70;90.90;;;;;;4932677;29;20084;-79
2023/10/23 04:51:53;;;;;;;1.17;0.90;;;15.70;90.90;;;;;;4932708;29;20066;-80
2023/10/23 04:54:19;;;;;;;2.03;1.20;;;15.70;90.90;;;;;;4932558;29;20063;-79
2023/10/23 04:56:45;;;;;;;1.90;1.25;;;15.70;91.00;;;;;;4932985;29;20066;-79
2023/10/23 04:59:11;;;;;;;1.30;1.00;;;15.70;91.00;;;;;;4946439;28;20030;-79
2023/10/23 05:01:36;;;;;;;1.30;0.98;;;15.70;91.00;;;;;;4950695;28;20035;-79
2023/10/23 05:04:02;;;;;;;2.08;1.20;;;15.70;91.00;;;;;;4951650;28;20117;-78
2023/10/23 05:06:28;;;;;;;1.42;1.00;;;15.70;91.00;;;;;;4951808;28;20126;-79
2023/10/23 05:08:54;;;;;;;1.85;1.30;;;15.70;91.00;;;;;;4951513;28;20042;-77
2023/10/23 05:11:19;;;;;;;2.10;1.20;;;15.60;91.00;;;;;;4951885;28;20034;-78
2023/10/23 05:13:46;;;;;;;1.50;1.08;;;15.60;91.00;;;;;;4969478;28;20038;-78
2023/10/23 05:16:12;;;;;;;1.70;1.15;;;15.70;91.00;;;;;;4969402;28;20791;-80
2023/10/23 05:18:39;;;;;;;1.60;1.10;;;15.60;91.00;;;;;;4951722;28;20112;-76
2023/10/23 05:21:12;;;;;;;1.52;1.05;;;15.60;90.90;;;;;;4967664;28;20082;-78
2023/10/23 05:23:39;;;;;;;1.40;1.00;;;15.70;91.00;;;;;;4968641;28;20034;-78
2023/10/23 05:26:06;;;;;;;1.40;1.00;;;15.70;90.90;;;;;;4968364;28;20054;-78
2023/10/23 05:28:32;;;;;;;1.52;1.00;;;15.70;90.90;;;;;;4951010;28;20042;-77
2023/10/23 05:30:57;;;;;;;1.23;1.00;;;15.70;90.80;;;;;;4951387;28;20023;-77
2023/10/23 05:33:23;;;;;;;1.70;1.10;;;15.70;90.80;;;;;;4951181;28;20033;-77
2023/10/23 05:35:49;;;;;;;1.30;1.00;;;15.80;90.80;;;;;;4950991;28;20122;-78
2023/10/23 05:38:14;;;;;;;1.73;1.10;;;15.80;90.70;;;;;;4950720;28;20101;-76
2023/10/23 05:40:40;;;;;;;3.80;1.40;;;15.80;90.70;;;;;;4950109;28;20117;-76
2023/10/23 05:43:06;;;;;;;3.10;1.70;;;15.70;90.70;;;;;;4949892;28;20101;-75
2023/10/23 05:45:31;;;;;;;2.85;1.70;;;15.70;90.70;;;;;;4952301;28;20049;-77
2023/10/23 05:47:57;;;;;;;3.17;1.85;;;15.70;90.70;;;;;;4959548;28;20445;-78
2023/10/23 05:50:22;;;;;;;4.93;2.08;;;15.70;90.80;;;;;;4959266;28;20027;-79
2023/10/23 05:52:48;;;;;;;3.95;1.83;;;15.70;90.80;;;;;;4957700;28;20709;-78
2023/10/23 05:55:13;;;;;;;3.88;2.15;;;15.70;90.80;;;;;;4991466;28;20029;-77
2023/10/23 05:57:39;;;;;;;4.53;2.10;;;15.70;90.90;;;;;;4995342;28;20388;-78
2023/10/23 06:00:05;;;;;;;5.90;2.20;;;15.70;90.90;;;;;;4995366;28;20097;-78
2023/10/23 06:02:34;;;;;;;3.85;2.20;;;15.70;90.90;;;;;;4993900;28;20022;-77
2023/10/23 06:04:59;;;;;;;4.18;2.40;;;15.70;90.90;;;;;;4994248;28;20041;-78
2023/10/23 06:07:25;;;;;;;3.88;2.22;;;15.70;90.90;;;;;;4994483;28;20113;-78
2023/10/23 06:09:51;;;;;;;3.92;2.10;;;15.60;90.90;;;;;;4995985;28;20037;-78
2023/10/23 06:12:17;;;;;;;4.97;2.28;;;15.60;90.90;;;;;;4994755;28;20073;-78
2023/10/23 06:14:43;;;;;;;4.53;2.33;;;15.60;91.00;;;;;;4995541;28;20023;-78
2023/10/23 06:17:08;;;;;;;5.43;2.40;;;15.60;91.00;;;;;;4978403;28;20058;-78
2023/10/23 06:19:34;;;;;;;3.92;2.35;;;15.60;91.00;;;;;;4994680;28;20026;-78
2023/10/23 06:22:00;;;;;;;3.90;2.25;;;15.70;91.00;;;;;;4994306;28;20027;-78
2023/10/23 06:24:27;;;;;;;4.22;2.20;;;15.60;91.00;;;;;;4995851;28;20030;-76
2023/10/23 06:26:52;;;;;;;4.93;2.33;;;15.60;91.00;;;;;;4994421;28;20080;-78
2023/10/23 06:29:18;;;;;;;4.13;2.15;;;15.60;91.00;;;;;;4994388;28;20109;-78
2023/10/23 06:31:43;;;;;;;3.72;2.20;;;15.60;91.00;;;;;;4994474;28;20026;-78
2023/10/23 06:34:09;;;;;;;5.40;2.30;;;15.60;91.00;;;;;;4978096;28;20030;-78
2023/10/23 06:36:35;;;;;;;3.78;2.08;;;15.70;91.00;;;;;;4995110;28;20412;-78
2023/10/23 06:39:01;;;;;;;4.40;2.22;;;15.70;90.90;;;;;;4994220;28;20113;-78
2023/10/23 06:41:26;;;;;;;4.22;2.20;;;15.70;90.90;;;;;;4994176;28;20116;-78
2023/10/23 06:43:52;;;;;;;4.00;2.30;;;15.70;90.80;;;;;;4994015;28;20030;-78
2023/10/23 06:46:17;;;;;;;3.97;2.22;;;15.70;90.80;;;;;;4995063;28;20030;-78
2023/10/23 06:48:46;;;;;;;3.20;1.90;;;15.80;90.80;;;;;;4993246;28;20555;-78
2023/10/23 06:51:12;;;;;;;4.03;2.00;;;15.80;90.90;;;;;;4958320;28;20504;-78
2023/10/23 06:53:39;;;;;;;3.33;2.03;;;15.80;90.70;;;;;;4958313;28;20058;-78
2023/10/23 06:56:07;;;;;;;4.05;1.90;;;15.80;90.60;;;;;;4974829;28;20023;-78
2023/10/23 06:58:33;;;;;;;3.80;2.20;;;15.80;90.60;;;;;;4974464;28;20038;-78
2023/10/23 07:01:06;;;;;;;3.35;2.03;;;15.80;90.60;;;;;;4957310;28;20022;-79
2023/10/23 07:03:31;;;;;;;3.58;2.15;;;15.80;90.60;;;;;;4974422;28;20027;-78
2023/10/23 07:05:57;;;;;;;3.80;2.15;;;15.80;90.60;;;;;;4975132;28;20026;-79
2023/10/23 07:08:22;;;;;;;4.47;2.08;;;15.80;90.60;;;;;;4958144;28;20026;-78
2023/10/23 07:10:48;;;;;;;4.18;2.20;;;15.80;90.60;;;;;;4958169;28;20397;-78
2023/10/23 07:13:13;;;;;;;4.82;2.50;;;15.80;90.60;;;;;;4957998;28;20019;-78
2023/10/23 07:15:40;;;;;;;3.42;2.20;;;15.80;90.60;;;;;;4957716;28;20023;-78
2023/10/23 07:18:05;;;;;;;4.28;2.40;;;15.80;90.70;;;;;;4957441;28;20039;-78
2023/10/23 07:20:31;;;;;;;4.32;2.38;;;15.90;90.70;;;;;;4938777;29;20048;-78
2023/10/23 07:22:57;;;;;;;4.35;2.50;;;15.90;90.60;;;;;;4938658;29;20378;-78
2023/10/23 07:25:22;;;;;;;4.40;2.30;;;15.90;90.60;;;;;;4942290;28;20088;-79
2023/10/23 07:27:49;;;;;;;4.63;2.38;;;15.90;90.50;;;;;;4976519;28;20031;-78
2023/10/23 07:30:15;;;;;;;4.40;2.20;;;15.90;90.50;;;;;;4957721;28;20027;-78
2023/10/23 07:32:40;;;;;;;3.67;2.10;;;16.00;90.50;;;;;;4958089;28;20081;-78
2023/10/23 07:35:08;;;;;;;4.85;2.58;;;16.00;90.40;;;;;;4957582;28;20050;-78
2023/10/23 07:37:34;;;;;;;4.63;2.20;;;16.00;90.40;;;;;;4974878;28;20467;-78
2023/10/23 07:40:04;;;;;;;3.58;2.30;;;16.00;90.40;;;;;;4983215;28;20022;-77
2023/10/23 07:42:30;;;;;;;4.07;2.22;;;16.00;90.40;;;;;;4968140;28;20507;-78
2023/10/23 07:44:56;;;;;;;3.63;2.13;;;16.00;90.40;;;;;;4953933;29;20114;-78
2023/10/23 07:47:21;;;;;;;4.40;2.50;;;16.00;90.30;;;;;;4958444;28;20058;-78
2023/10/23 07:49:47;;;;;;;3.78;2.30;;;16.10;90.40;;;;;;4973413;28;20062;-77
2023/10/23 07:52:12;;;;;;;3.75;2.05;;;16.10;90.30;;;;;;4957747;28;20018;-78
2023/10/23 07:54:38;;;;;;;4.22;2.40;;;16.10;90.30;;;;;;4974273;28;20030;-78
2023/10/23 07:57:03;;;;;;;4.57;2.67;;;16.10;90.30;;;;;;4973412;28;20027;-78
2023/10/23 07:59:29;;;;;;;4.38;2.33;;;16.10;90.30;;;;;;4957242;28;20023;-77
2023/10/23 08:01:56;;;;;;;3.78;2.17;;;16.20;90.20;;;;;;4974277;28;20062;-78
2023/10/23 08:04:21;;;;;;;3.65;2.22;;;16.20;90.20;;;;;;4957061;28;20035;-78
2023/10/23 08:06:47;;;;;;;4.28;2.30;;;16.30;90.10;;;;;;4974442;28;20019;-78
2023/10/23 08:09:12;;;;;;;4.53;2.35;;;16.30;90.10;;;;;;4956563;28;20034;-78
2023/10/23 08:11:38;;;;;;;4.43;2.45;;;16.40;90.00;;;;;;4974259;28;20157;-78
2023/10/23 08:14:04;;;;;;;5.28;2.63;;;16.40;89.80;;;;;;4956933;28;20023;-78
2023/10/23 08:16:30;;;;;;;4.97;2.70;;;16.40;89.60;;;;;;4972785;28;20030;-78
2023/10/23 08:18:57;;;;;;;4.97;2.65;;;16.50;89.70;;;;;;4956816;28;20532;-78
2023/10/23 08:21:23;;;;;;;4.35;2.40;;;16.50;89.60;;;;;;4957177;28;20019;-78
2023/10/23 08:23:52;;;;;;;4.50;2.50;;;16.50;89.50;;;;;;4956815;28;20054;-78
2023/10/23 08:26:18;;;;;;;4.47;2.53;;;16.50;89.60;;;;;;4956585;28;20082;-77
2023/10/23 08:28:44;;;;;;;4.18;2.40;;;16.50;89.50;;;;;;4972720;28;20437;-78
2023/10/23 08:31:09;;;;;;;3.92;2.35;;;16.50;89.60;;;;;;4973810;28;20061;-78
2023/10/23 08:33:35;;;;;;;3.83;2.47;;;16.50;89.60;;;;;;4950673;29;20054;-78
2023/10/23 08:36:00;;;;;;;3.67;2.30;;;16.60;89.60;;;;;;4953146;29;20023;-77
2023/10/23 08:38:27;;;;;;;4.80;2.75;;;16.60;89.50;;;;;;4953266;29;20035;-79
2023/10/23 08:40:53;;;;;;;4.40;2.30;;;16.60;89.50;;;;;;4954802;29;20047;-78
2023/10/23 08:43:19;;;;;;;4.35;2.63;;;16.60;89.50;;;;;;4953295;29;20034;-78
2023/10/23 08:45:47;;;;;;;3.65;2.30;;;16.70;89.50;;;;;;4953028;29;20035;-77
2023/10/23 08:48:13;;;;;;;4.55;2.40;;;16.70;89.40;;;;;;4954522;29;20593;-78
2023/10/23 08:50:40;;;;;;;4.38;2.60;;;16.70;89.30;;;;;;4953387;29;20035;-78
2023/10/23 08:53:09;;;;;;;3.72;2.15;;;16.70;89.30;;;;;;4953477;29;20386;-79
2023/10/23 08:55:34;;;;;;;5.60;2.40;;;16.70;89.30;;;;;;4952852;29;20020;-78
2023/10/23 08:58:03;;;;;;;4.85;2.72;;;16.70;89.30;;;;;;4952901;29;20028;-78
2023/10/23 09:00:29;;;;;;;4.20;2.40;;;16.80;89.40;;;;;;4953226;29;20023;-78
2023/10/23 09:02:58;;;;;;;4.10;2.40;;;16.80;89.30;;;;;;4954386;29;20042;-78
2023/10/23 09:05:24;;;;;;;4.68;2.75;;;16.80;89.20;;;;;;4952816;29;20032;-78
2023/10/23 09:07:49;;;;;;;4.45;2.58;;;16.80;89.20;;;;;;4952972;29;20557;-78
2023/10/23 09:10:15;;;;;;;5.25;3.00;;;16.80;89.30;;;;;;4952998;29;20039;-78
2023/10/23 09:12:40;;;;;;;4.30;2.47;;;16.90;89.30;;;;;;4954158;29;20070;-78
2023/10/23 09:15:17;;;;;;;4.13;2.50;;;16.90;89.20;;;;;;4952819;29;20020;-78
2023/10/23 09:17:44;;;;;;;4.72;2.90;;;16.90;89.20;;;;;;4953003;29;20429;-78
2023/10/23 09:20:16;;;;;;;4.50;2.60;;;16.90;89.20;;;;;;4953427;28;20023;-78
2023/10/23 09:22:46;;;;;;;;;;;17.00;89.20;;;;;;4941382;29;20038;-78
2023/10/23 09:25:14;;;;;;;4.30;2.42;;;17.00;89.10;;;;;;4956532;29;19949;-78
2023/10/23 09:27:40;;;;;;;4.13;2.60;;;17.00;89.00;;;;;;4956773;29;20027;-78
2023/10/23 09:30:06;;;;;;;4.53;2.65;;;17.00;88.60;;;;;;4957885;29;20043;-78
2023/10/23 09:32:32;;;;;;;4.22;2.50;;;17.00;88.50;;;;;;4956617;29;20031;-78
2023/10/23 09:34:57;;;;;;;4.43;2.58;;;17.00;88.60;;;;;;4956381;29;20081;-78
2023/10/23 09:37:24;;;;;;;5.35;2.55;;;17.00;88.60;;;;;;4956654;29;20086;-78
2023/10/23 09:39:52;;;;;;;4.72;2.55;;;17.00;88.70;;;;;;4956549;29;20070;-79
2023/10/23 09:42:18;;;;;;;4.65;2.60;;;17.00;88.90;;;;;;4956467;29;20082;-77
2023/10/23 09:44:45;;;;;;;4.20;2.55;;;17.00;89.00;;;;;;4956139;29;20507;-78
2023/10/23 09:47:11;;;;;;;5.25;2.88;;;17.00;89.10;;;;;;4956564;29;20026;-78
2023/10/23 09:49:39;;;;;;;3.92;2.35;;;17.00;89.10;;;;;;4956502;29;20495;-79
2023/10/23 09:52:07;;;;;;;4.20;2.47;;;17.00;89.20;;;;;;4956344;29;20034;-79
2023/10/23 09:54:38;;;;;;;3.72;2.20;;;17.00;89.20;;;;;;4959135;28;20034;-78
2023/10/23 09:57:07;;;;;;;4.40;2.67;;;17.00;89.30;;;;;;4959385;28;20029;-78
2023/10/23 09:59:44;;;;;;;4.57;2.72;;;17.00;89.30;;;;;;4959581;28;20022;-78
2023/10/23 10:02:13;;;;;;;4.20;2.50;;;17.00;89.40;;;;;;4959483;28;20503;-78
2023/10/23 10:04:54;;;;;;;4.63;2.58;;;17.00;89.50;;;;;;4976436;28;20473;-78
2023/10/23 10:07:29;;;;;;;4.88;2.72;;;16.90;89.60;;;;;;4976730;28;20029;-78
2023/10/23 10:09:56;;;;;;;4.28;2.45;;;16.90;89.70;;;;;;4975125;28;20492;-78
2023/10/23 10:12:23;;;;;;;4.50;2.70;;;16.80;89.80;;;;;;4975415;28;20035;-78
2023/10/23 10:14:49;;;;;;;4.63;2.53;;;16.90;89.80;;;;;;4975155;28;20023;-77
2023/10/23 10:17:19;;;;;;;4.55;2.53;;;16.80;89.80;;;;;;4959241;28;20514;-78
2023/10/23 10:19:45;;;;;;;4.30;2.50;;;16.80;89.80;;;;;;4958999;28;20081;-79
2023/10/23 10:22:17;;;;;;;4.22;2.55;;;16.90;89.90;;;;;;4959002;28;20664;-78
2023/10/23 10:24:44;;;;;;;4.38;2.60;;;16.80;89.90;;;;;;4974779;28;20035;-77
2023/10/23 10:27:09;;;;;;;4.82;2.63;;;16.80;89.90;;;;;;4975150;28;20030;-78
2023/10/23 10:29:35;;;;;;;4.75;2.80;;;16.80;89.80;;;;;;4958778;28;20069;-78
2023/10/23 10:32:05;;;;;;;4.07;2.60;;;16.90;89.90;;;;;;4974332;28;20037;-78
2023/10/23 10:34:51;;;;;;;4.47;2.55;;;16.90;89.80;;;;;;4975962;28;20485;-78
2023/10/23 10:37:17;;;;;;;4.07;2.38;;;16.90;89.60;;;;;;4976105;28;20054;-78
2023/10/23 10:39:52;;;;;;;4.28;2.42;;;16.90;89.60;;;;;;4974775;28;20022;-79
2023/10/23 10:42:28;;;;;;;5.80;3.00;;;16.90;89.40;;;;;;4974835;28;20493;-78
2023/10/23 10:44:54;;;;;;;5.30;2.83;;;16.90;89.30;;;;;;4974490;28;20078;-78
2023/10/23 10:47:21;;;;;;;4.22;2.58;;;16.90;89.30;;;;;;4958660;28;20031;-78
2023/10/23 10:49:47;;;;;;;4.75;2.83;;;16.90;89.40;;;;;;4974554;28;20031;-78
2023/10/23 10:52:31;;;;;;;4.78;2.80;;;16.90;89.60;;;;;;4975880;28;20098;-78
2023/10/23 10:55:01;;;;;;;4.75;2.65;;;16.90;89.70;;;;;;4974220;28;20374;-78
2023/10/23 10:57:27;;;;;;;4.60;2.88;;;16.80;89.70;;;;;;4974580;28;20030;-78
2023/10/23 10:59:57;;;;;;;4.90;2.90;;;16.80;89.70;;;;;;4974983;28;20018;-78
2023/10/23 11:02:23;;;;;;;4.85;2.90;;;16.90;89.70;;;;;;4958344;28;20026;-78
2023/10/23 11:04:49;;;;;;;4.60;2.63;;;16.90;89.70;;;;;;4974102;28;20019;-78
2023/10/23 11:07:19;;;;;;;4.88;2.92;;;16.90;89.60;;;;;;4975664;28;20106;-78
2023/10/23 11:09:45;;;;;;;4.82;2.60;;;16.90;89.70;;;;;;4958016;28;20424;-78
2023/10/23 11:12:10;;;;;;;5.20;2.63;;;16.90;89.70;;;;;;4974370;28;20073;-79
2023/10/23 11:14:38;;;;;;;4.72;2.70;;;16.90;89.80;;;;;;4957803;28;20118;-77
2023/10/23 11:17:05;;;;;;;5.47;2.70;;;16.80;89.80;;;;;;4958018;28;20019;-79
2023/10/23 11:19:31;;;;;;;5.38;2.90;;;16.80;89.90;;;;;;4974163;28;20110;-78
2023/10/23 11:22:10;;;;;;;5.10;2.92;;;16.80;89.90;;;;;;4973842;28;20061;-78
2023/10/23 11:24:37;;;;;;;4.22;2.65;;;16.80;89.90;;;;;;4973715;28;20026;-77
2023/10/23 11:27:07;;;;;;;4.68;2.80;;;16.80;90.00;;;;;;4975222;28;20038;-78
2023/10/23 11:29:39;;;;;;;5.25;2.70;;;16.80;90.00;;;;;;4973978;28;20117;-78
2023/10/23 11:32:06;;;;;;;5.53;2.90;;;16.80;90.00;;;;;;4973816;28;20093;-78
2023/10/23 11:34:32;;;;;;;5.40;3.10;;;16.80;90.00;;;;;;4974841;28;20556;-78
2023/10/23 11:37:00;;;;;;;4.55;2.72;;;16.80;90.00;;;;;;4974629;28;20062;-79
2023/10/23 11:39:28;;;;;;;4.20;2.53;;;16.80;90.10;;;;;;4975131;28;20046;-78
2023/10/23 11:41:56;;;;;;;4.80;2.75;;;16.80;90.00;;;;;;4957485;28;20058;-78
2023/10/23 11:44:22;;;;;;;4.47;2.60;;;16.80;90.00;;;;;;4972850;28;20038;-78
2023/10/23 11:46:48;;;;;;;4.80;2.80;;;16.80;90.00;;;;;;4974620;28;20125;-78
2023/10/23 11:49:18;;;;;;;5.05;3.03;;;16.80;89.90;;;;;;4973687;28;20527;-77
2023/10/23 11:51:44;;;;;;;4.70;2.78;;;16.90;89.80;;;;;;4973276;28;20397;-78
2023/10/23 11:54:10;;;;;;;4.65;2.75;;;16.80;89.60;;;;;;4973325;28;20023;-78
2023/10/23 11:56:36;;;;;;;4.18;2.67;;;16.90;89.70;;;;;;4973086;28;20029;-78
2023/10/23 11:59:03;;;;;;;4.22;2.75;;;16.90;89.60;;;;;;4973503;28;20038;-78
2023/10/23 12:01:30;;;;;;;4.45;2.70;;;16.90;89.60;;;;;;4973199;28;20485;-78
2023/10/23 12:03:55;;;;;;;4.80;2.83;;;16.80;89.70;;;;;;4973224;28;20125;-78
2023/10/23 12:06:21;;;;;;;5.30;3.17;;;16.80;89.80;;;;;;4973054;28;20104;-78
2023/10/23 12:08:46;;;;;;;4.43;2.75;;;16.80;89.90;;;;;;4973171;28;20038;-78
2023/10/23 12:11:12;;;;;;;4.40;2.60;;;16.80;89.90;;;;;;4973082;28;20480;-78
2023/10/23 12:13:39;;;;;;;4.95;2.75;;;16.80;89.90;;;;;;4973225;28;20085;-78
2023/10/23 12:16:04;;;;;;;4.80;2.88;;;16.80;89.90;;;;;;4972811;28;20027;-78
2023/10/23 12:18:30;;;;;;;5.57;2.92;;;16.80;90.00;;;;;;4956922;28;20481;-78
2023/10/23 12:20:55;;;;;;;4.05;2.55;;;16.80;90.00;;;;;;4956979;28;20471;-78
2023/10/23 12:23:22;;;;;;;4.50;2.80;;;16.70;90.00;;;;;;4972880;28;20018;-78
2023/10/23 12:25:47;;;;;;;4.55;2.67;;;16.70;90.00;;;;;;4972649;28;20031;-78
2023/10/23 12:28:13;;;;;;;4.28;2.72;;;16.70;90.00;;;;;;4972951;28;20042;-79
2023/10/23 12:30:38;;;;;;;4.93;3.00;;;16.70;90.10;;;;;;4973918;28;20027;-78
2023/10/23 12:33:05;;;;;;;4.45;2.97;;;16.70;90.10;;;;;;4972783;28;20030;-78
2023/10/23 12:35:30;;;;;;;4.55;2.80;;;16.70;90.10;;;;;;4972822;28;20109;-78
2023/10/23 12:37:56;;;;;;;4.35;2.72;;;16.70;90.10;;;;;;4972905;28;20070;-78
2023/10/23 12:40:21;;;;;;;5.07;2.88;;;16.70;90.10;;;;;;4956771;28;20027;-78
2023/10/23 12:42:47;;;;;;;4.32;2.63;;;16.70;90.10;;;;;;4972608;28;20696;-78
2023/10/23 12:45:12;;;;;;;4.72;2.80;;;16.70;90.20;;;;;;4972232;28;20034;-79
2023/10/23 12:47:38;;;;;;;4.78;2.50;;;16.70;90.20;;;;;;4972471;28;20023;-78
2023/10/23 12:50:04;;;;;;;4.55;2.78;;;16.70;90.20;;;;;;4972339;28;20074;-78
2023/10/23 12:52:30;;;;;;;4.60;2.70;;;16.70;90.10;;;;;;4956403;28;20019;-78